Time;durP1;ratioP1;P1;durP2;ratioP2;P2;SDS_P1;SDS_P2;PMS_P1;PMS_P2;Temp;Humidity;BMP_temperature;BMP_pressure;BME280_temperature;BME280_humidity;BME280_pressure;Samples;Min_cycle;Max_cycle;Signal;HPM_P1;HPM_P2
2023/04/16 00:00:47;;;;;;;24.70;16.90;;;;;;;7.61;100.00;99965.38;180456;1262;43833;-88
2023/04/16 00:05:08;;;;;;;20.60;15.80;;;;;;;7.57;100.00;99962.88;180542;1262;43801;-88
2023/04/16 00:09:11;;;;;;;22.30;15.00;;;;;;;7.58;100.00;99963.17;180625;1262;58291;-87
2023/04/16 00:13:15;;;;;;;23.00;14.80;;;;;;;7.57;100.00;99962.70;180565;1262;43785;-87
2023/04/16 00:17:18;;;;;;;17.30;14.40;;;;;;;7.60;100.00;99966.55;180654;1262;43795;-87
2023/04/16 00:21:21;;;;;;;20.50;14.30;;;;;;;7.60;100.00;99968.34;180480;1262;43754;-88
2023/04/16 00:25:25;;;;;;;22.80;15.40;;;;;;;7.64;100.00;99971.19;180488;1262;43800;-87
2023/04/16 00:29:29;;;;;;;19.30;15.50;;;;;;;7.56;100.00;99973.52;180614;1262;58046;-87
2023/04/16 00:33:33;;;;;;;24.30;15.00;;;;;;;7.30;100.00;99974.23;180501;1264;43978;-87
2023/04/16 00:37:37;;;;;;;25.40;17.30;;;;;;;6.94;100.00;99972.16;180711;1264;44369;-87
2023/04/16 00:41:49;;;;;;;24.90;15.20;;;;;;;6.68;100.00;99971.73;180579;1262;43890;-87
2023/04/16 00:45:55;;;;;;;17.10;13.40;;;;;;;6.59;100.00;99976.96;180675;1262;43866;-87
2023/04/16 00:49:59;;;;;;;20.20;15.60;;;;;;;6.62;100.00;99987.30;180613;1263;59560;-88
2023/04/16 00:54:03;;;;;;;24.20;16.70;;;;;;;6.55;100.00;99988.09;180559;1264;43832;-88
2023/04/16 00:58:06;;;;;;;22.20;15.40;;;;;;;6.54;100.00;99988.73;180773;1262;43807;-88
2023/04/16 01:02:09;;;;;;;19.10;15.30;;;;;;;6.57;100.00;99992.41;180529;1264;43831;-89
2023/04/16 01:06:15;;;;;;;26.40;17.50;;;;;;;6.65;100.00;99989.86;180703;1264;43796;-88
2023/04/16 01:10:18;;;;;;;23.70;13.90;;;;;;;6.77;100.00;99993.84;180379;1262;59740;-88
2023/04/16 01:14:22;;;;;;;21.50;14.40;;;;;;;6.83;100.00;99994.27;180440;1264;44058;-88
2023/04/16 01:18:25;;;;;;;20.40;14.80;;;;;;;6.74;100.00;100000.91;180600;1264;44077;-88
2023/04/16 01:22:29;;;;;;;20.60;14.60;;;;;;;6.55;100.00;100000.99;180557;1262;43824;-88
2023/04/16 01:26:33;;;;;;;24.60;17.30;;;;;;;6.44;100.00;100000.70;180578;1262;43909;-88
2023/04/16 01:30:37;;;;;;;27.30;18.30;;;;;;;6.34;100.00;99999.25;180553;1264;57925;-88
2023/04/16 01:34:41;;;;;;;20.00;16.90;;;;;;;6.24;100.00;100000.97;180528;1264;43840;-88
2023/04/16 01:38:45;;;;;;;28.60;20.40;;;;;;;6.08;100.00;100000.84;180534;1264;43796;-88
2023/04/16 01:42:50;;;;;;;33.30;20.70;;;;;;;5.93;100.00;100002.96;180496;1262;43752;-88
2023/04/16 01:46:55;;;;;;;30.60;19.20;;;;;;;5.81;100.00;100003.81;180572;1262;43826;-88
2023/04/16 01:50:59;;;;;;;20.30;17.40;;;;;;;5.68;100.00;100009.23;180513;1264;58110;-88
2023/04/16 01:55:04;;;;;;;24.70;16.80;;;;;;;5.70;100.00;100008.39;180666;1262;43805;-87
2023/04/16 01:59:08;;;;;;;21.80;15.70;;;;;;;5.76;100.00;100007.80;180831;1262;43834;-88
2023/04/16 02:03:12;;;;;;;21.10;16.70;;;;;;;5.81;100.00;100003.42;180406;1262;44455;-88
2023/04/16 02:07:16;;;;;;;24.70;17.40;;;;;;;5.89;100.00;100010.15;180497;1263;44049;-88
2023/04/16 02:11:20;;;;;;;21.00;16.90;;;;;;;5.90;100.00;100009.59;180536;1264;59627;-88
2023/04/16 02:15:24;;;;;;;20.50;12.80;;;;;;;5.94;100.00;100013.35;180483;1262;43809;-88
2023/04/16 02:19:28;;;;;;;21.20;14.60;;;;;;;5.91;100.00;100014.79;180722;1262;44212;-88
2023/04/16 02:23:32;;;;;;;24.90;17.60;;;;;;;5.73;100.00;100014.88;180438;1265;43907;-87
2023/04/16 02:27:36;;;;;;;15.60;12.30;;;;;;;5.74;100.00;100021.20;180593;1262;44408;-87
2023/04/16 02:31:41;;;;;;;24.10;16.40;;;;;;;5.58;100.00;100022.72;180513;1262;59213;-88
2023/04/16 02:35:44;;;;;;;21.70;14.20;;;;;;;5.49;100.00;100024.34;180553;1264;43774;-88
2023/04/16 02:39:48;;;;;;;17.80;13.40;;;;;;;5.58;100.00;100026.80;180652;1262;43829;-88
2023/04/16 02:43:52;;;;;;;14.60;11.20;;;;;;;5.68;100.00;100028.58;180578;1262;44031;-88
2023/04/16 02:47:56;;;;;;;19.10;13.20;;;;;;;5.69;100.00;100034.33;180515;1264;43771;-88
2023/04/16 02:51:59;;;;;;;15.40;12.20;;;;;;;5.72;100.00;100032.02;180591;1262;59626;-87
2023/04/16 02:56:04;;;;;;;20.80;16.20;;;;;;;5.88;100.00;100028.88;180705;1262;43995;-89
2023/04/16 03:00:08;;;;;;;15.20;11.10;;;;;;;5.79;100.00;100036.65;180579;1264;44181;-87
2023/04/16 03:04:12;;;;;;;16.80;12.40;;;;;;;5.63;100.00;100046.52;180714;1264;43920;-88
2023/04/16 03:08:16;;;;;;;23.30;14.20;;;;;;;5.56;100.00;100047.27;180716;1263;43782;-89
2023/04/16 03:12:20;;;;;;;23.90;15.10;;;;;;;5.53;100.00;100043.96;180496;1265;57481;-88
2023/04/16 03:16:24;;;;;;;16.80;14.50;;;;;;;5.33;100.00;100048.08;180476;1262;44172;-88
2023/04/16 03:20:27;;;;;;;16.90;15.00;;;;;;;5.28;100.00;100051.73;180528;1262;43933;-88
2023/04/16 03:24:31;;;;;;;18.40;15.30;;;;;;;5.10;100.00;100058.64;180446;1262;43910;-87
2023/04/16 03:28:34;;;;;;;19.70;16.00;;;;;;;4.97;100.00;100061.69;180596;1262;43828;-87
2023/04/16 03:32:38;;;;;;;24.50;15.90;;;;;;;5.07;100.00;100069.91;180561;1262;59595;-87
2023/04/16 03:36:41;;;;;;;28.30;17.70;;;;;;;5.16;100.00;100072.86;180622;1262;43866;-87
2023/04/16 03:40:45;;;;;;;16.80;13.10;;;;;;;5.22;100.00;100082.65;180532;1264;43794;-87
2023/04/16 03:44:49;;;;;;;22.40;15.10;;;;;;;5.29;100.00;100086.63;180668;1264;43779;-88
2023/04/16 03:48:52;;;;;;;17.80;14.00;;;;;;;5.44;100.00;100089.24;180678;1262;43746;-88
2023/04/16 03:52:57;;;;;;;17.00;12.00;;;;;;;5.61;100.00;100095.38;180589;1262;60254;-88
2023/04/16 03:57:01;;;;;;;22.10;14.70;;;;;;;5.73;100.00;100107.11;180763;1262;43912;-86
2023/04/16 04:01:05;;;;;;;20.60;14.90;;;;;;;5.86;100.00;100109.59;180765;1262;43809;-87
2023/04/16 04:05:08;;;;;;;21.90;15.80;;;;;;;5.94;100.00;100116.66;180463;1265;44123;-87
2023/04/16 04:09:15;;;;;;;30.20;13.70;;;;;;;5.97;100.00;100121.54;180572;1264;43792;-88
2023/04/16 04:13:18;;;;;;;35.20;12.80;;;;;;;5.90;100.00;100129.59;180625;1262;59066;-87
2023/04/16 04:17:22;;;;;;;16.10;9.60;;;;;;;5.81;100.00;100127.54;180666;1262;43799;-88
2023/04/16 04:21:28;;;;;;;25.70;13.10;;;;;;;5.58;100.00;100126.66;180564;1264;44037;-88
2023/04/16 04:25:32;;;;;;;18.80;10.20;;;;;;;5.47;100.00;100126.30;180567;1262;43853;-88
2023/04/16 04:29:35;;;;;;;31.90;13.30;;;;;;;5.51;100.00;100130.84;180392;1265;43893;-86
2023/04/16 04:33:39;;;;;;;22.80;14.60;;;;;;;5.61;100.00;100138.48;180484;1262;59432;-87
2023/04/16 04:37:43;;;;;;;29.70;11.90;;;;;;;5.75;100.00;100147.10;180511;1262;43755;-87
2023/04/16 04:41:47;;;;;;;52.20;17.30;;;;;;;5.93;100.00;100152.30;180331;1264;43918;-87
2023/04/16 04:45:51;;;;;;;20.10;13.70;;;;;;;6.18;100.00;100147.35;180519;1262;43844;-87
2023/04/16 04:49:54;;;;;;;23.80;14.20;;;;;;;6.42;100.00;100143.99;180720;1262;43730;-87
2023/04/16 04:53:57;;;;;;;23.50;14.10;;;;;;;6.49;100.00;100147.80;180646;1264;58291;-88
2023/04/16 04:58:02;;;;;;;24.50;14.50;;;;;;;6.52;100.00;100156.23;180473;1263;44002;-87
2023/04/16 05:02:06;;;;;;;20.30;12.90;;;;;;;6.55;100.00;100158.48;180601;1264;43895;-87
2023/04/16 05:06:10;;;;;;;29.20;14.30;;;;;;;6.53;100.00;100166.56;180579;1264;43863;-87
2023/04/16 05:10:13;;;;;;;31.30;15.20;;;;;;;6.48;100.00;100168.33;180665;1262;43779;-87
2023/04/16 05:14:16;;;;;;;18.20;12.30;;;;;;;6.54;100.00;100178.85;180559;1262;59689;-86
2023/04/16 05:18:20;;;;;;;20.40;12.80;;;;;;;6.51;100.00;100188.55;180716;1262;43785;-87
2023/04/16 05:22:23;;;;;;;17.90;14.00;;;;;;;6.55;100.00;100196.03;180549;1263;43804;-87
2023/04/16 05:26:26;;;;;;;27.90;12.90;;;;;;;6.61;100.00;100207.79;180448;1265;44164;-87
2023/04/16 05:30:29;;;;;;;21.20;12.40;;;;;;;6.72;100.00;100210.02;180441;1265;43825;-87
2023/04/16 05:34:33;;;;;;;20.60;12.40;;;;;;;6.81;100.00;100212.30;180454;1265;58976;-87
2023/04/16 05:38:36;;;;;;;24.00;15.20;;;;;;;6.92;100.00;100211.89;180600;1265;43896;-87
2023/04/16 05:42:40;;;;;;;28.20;14.80;;;;;;;7.13;100.00;100214.90;180567;1264;44364;-87
2023/04/16 05:46:44;;;;;;;30.90;14.90;;;;;;;7.36;100.00;100216.65;180545;1264;43780;-87
2023/04/16 05:50:48;;;;;;;20.80;13.00;;;;;;;7.50;100.00;100217.16;180477;1264;43823;-87
2023/04/16 05:54:52;;;;;;;18.80;13.10;;;;;;;7.46;100.00;100224.48;180562;1265;59429;-87
2023/04/16 05:58:56;;;;;;;17.20;12.90;;;;;;;7.34;100.00;100223.91;180458;1263;47221;-87
2023/04/16 06:02:59;;;;;;;23.10;12.70;;;;;;;7.25;100.00;100228.17;180576;1264;43780;-86
2023/04/16 06:07:03;;;;;;;22.30;13.20;;;;;;;7.36;100.00;100226.59;180370;1264;44158;-86
2023/04/16 06:11:07;;;;;;;19.50;12.20;;;;;;;7.48;100.00;100229.78;180397;1265;44006;-86
2023/04/16 06:15:10;;;;;;;15.30;11.60;;;;;;;7.61;100.00;100233.86;180618;1264;57847;-86
2023/04/16 06:19:14;;;;;;;22.00;11.80;;;;;;;7.51;100.00;100240.31;180564;1264;43821;-86
2023/04/16 06:23:17;;;;;;;20.90;16.10;;;;;;;7.43;100.00;100240.70;180616;1263;43808;-86
2023/04/16 06:27:22;;;;;;;20.90;13.00;;;;;;;7.45;100.00;100246.96;180706;1265;43719;-87
2023/04/16 06:31:27;;;;;;;24.30;14.00;;;;;;;7.56;100.00;100251.48;180555;1264;43804;-87
2023/04/16 06:35:30;;;;;;;24.70;16.40;;;;;;;7.66;100.00;100254.67;180548;1264;59452;-87
2023/04/16 06:39:34;;;;;;;26.30;16.90;;;;;;;7.76;100.00;100257.64;180533;1263;43782;-87
2023/04/16 06:43:38;;;;;;;17.40;14.40;;;;;;;7.78;100.00;100260.20;180477;1264;43871;-86
2023/04/16 06:47:42;;;;;;;24.00;16.60;;;;;;;7.89;100.00;100259.43;180414;1264;43993;-87
2023/04/16 07:08:28;;;;;;;20.30;14.40;;;;;;;8.99;100.00;100256.36;180384;1264;578888;-61
2023/04/16 07:12:31;;;;;;;33.20;21.10;;;;;;;9.39;100.00;100258.00;183977;1246;58442;-61
2023/04/16 07:16:36;;;;;;;33.70;21.70;;;;;;;9.26;100.00;100266.79;184048;1246;46082;-61
2023/04/16 07:20:38;;;;;;;39.50;27.60;;;;;;;9.20;100.00;100270.39;183880;1245;43927;-61
2023/04/16 07:24:40;;;;;;;46.00;26.30;;;;;;;9.17;100.00;100275.77;184217;1241;44946;-61
2023/04/16 07:28:45;;;;;;;33.80;24.30;;;;;;;9.31;100.00;100278.29;184400;1241;43830;-60
2023/04/16 07:32:47;;;;;;;32.30;19.70;;;;;;;9.35;100.00;100279.72;184380;1241;81151;-61
2023/04/16 07:36:49;;;;;;;29.40;18.20;;;;;;;9.48;100.00;100284.73;184272;1241;43650;-61
2023/04/16 07:40:54;;;;;;;42.40;25.10;;;;;;;9.59;100.00;100287.63;184114;1241;46048;-61
2023/04/16 07:44:55;;;;;;;29.30;19.60;;;;;;;9.52;100.00;100284.77;184056;1241;43689;-61
2023/04/16 07:48:59;;;;;;;24.70;17.00;;;;;;;9.56;100.00;100287.30;184361;1241;43470;-62
2023/04/16 07:53:04;;;;;;;24.40;15.10;;;;;;;9.71;100.00;100297.30;184583;1241;58610;-61
2023/04/16 07:57:07;;;;;;;24.40;18.10;;;;;;;9.95;100.00;100304.83;185688;1234;43572;-61
2023/04/16 08:01:34;;;;;;;28.10;18.70;;;;;;;10.19;100.00;100304.04;185392;1234;45876;-61
2023/04/16 08:05:36;;;;;;;27.00;18.60;;;;;;;10.45;100.00;100310.17;185489;1234;43671;-61
2023/04/16 08:09:49;;;;;;;23.30;17.90;;;;;;;10.60;100.00;100314.76;185487;1237;44290;-61
2023/04/16 08:13:51;;;;;;;26.50;19.00;;;;;;;10.59;100.00;100316.09;185503;1234;58781;-62
2023/04/16 08:17:52;;;;;;;25.30;20.70;;;;;;;10.71;100.00;100320.09;185289;1234;44947;-61
2023/04/16 08:22:17;;;;;;;39.80;22.50;;;;;;;10.95;100.00;100330.64;185324;1234;44003;-61
2023/04/16 08:26:19;;;;;;;37.00;23.60;;;;;;;11.24;100.00;100333.52;185358;1234;45863;-61
2023/04/16 08:30:21;;;;;;;43.90;27.70;;;;;;;11.44;100.00;100337.36;185393;1235;43462;-61
2023/04/16 08:34:22;;;;;;;46.30;27.00;;;;;;;11.63;100.00;100341.06;185454;1234;57440;-62
2023/04/16 08:38:25;;;;;;;44.50;28.30;;;;;;;11.82;100.00;100343.55;185426;1234;43946;-62
2023/04/16 08:42:31;;;;;;;38.30;28.40;;;;;;;12.00;100.00;100343.31;185238;1235;44655;-62
2023/04/16 08:46:37;;;;;;;50.00;30.70;;;;;;;12.22;100.00;100346.36;185333;1235;46451;-60
2023/04/16 08:50:40;;;;;;;46.80;31.30;;;;;;;12.51;100.00;100347.02;185391;1234;43463;-60
2023/04/16 08:54:57;;;;;;;42.40;27.30;;;;;;;12.81;99.07;100349.75;185502;1235;58321;-60
2023/04/16 08:59:04;;;;;;;39.50;27.60;;;;;;;13.01;97.09;100355.42;185461;1234;45867;-60
2023/04/16 09:03:07;;;;;;;38.40;25.90;;;;;;;13.02;97.39;100359.23;185347;1234;44524;-60
2023/04/16 09:07:11;;;;;;;39.40;26.50;;;;;;;13.21;98.37;100360.84;185454;1234;43969;-60
2023/04/16 09:11:13;;;;;;;35.00;25.40;;;;;;;13.50;96.37;100362.85;185368;1235;45967;-60
2023/04/16 09:16:11;;;;;;;41.30;27.80;;;;;;;13.68;93.62;100362.98;185416;1234;58237;-61
2023/04/16 09:20:14;;;;;;;40.40;26.30;;;;;;;13.82;94.13;100366.11;185300;1235;45911;-62
2023/04/16 09:24:21;;;;;;;39.00;28.40;;;;;;;13.87;92.25;100366.61;185342;1234;43600;-62
2023/04/16 09:33:21;;;;;;;42.90;26.20;;;;;;;14.13;91.29;100368.61;186001;1234;43304;-63
2023/04/16 09:37:56;;;;;;;49.80;32.00;;;;;;;14.18;90.86;100372.98;185788;1236;77808;-63
2023/04/16 09:41:58;;;;;;;36.10;28.10;;;;;;;14.54;90.97;100368.63;186282;1234;44801;-87
2023/04/16 09:46:03;;;;;;;37.60;27.10;;;;;;;14.84;90.19;100365.40;186179;1234;81328;-62
2023/04/16 09:50:16;;;;;;;33.40;24.00;;;;;;;15.10;88.61;100367.86;185550;1235;43515;-62
2023/04/16 09:54:52;;;;;;;35.20;26.00;;;;;;;15.23;87.14;100370.31;185072;1235;45957;-62
2023/04/16 09:59:01;;;;;;;30.70;23.30;;;;;;;15.46;87.05;100368.33;185166;1235;58319;-63
2023/04/16 10:03:05;;;;;;;38.50;28.60;;;;;;;15.56;85.08;100368.58;185248;1239;46002;-63
2023/04/16 10:07:08;;;;;;;29.10;22.20;;;;;;;15.61;85.78;100366.83;185377;1236;45941;-63
2023/04/16 10:11:10;;;;;;;33.70;23.10;;;;;;;15.59;84.46;100367.04;185026;1236;46099;-63
2023/04/16 10:15:12;;;;;;;39.20;22.90;;;;;;;15.61;84.02;100365.75;185121;1235;43578;-63
2023/04/16 10:19:16;;;;;;;29.00;20.70;;;;;;;15.60;84.87;100374.86;185220;1238;57408;-63
2023/04/16 10:23:22;;;;;;;30.80;24.10;;;;;;;15.66;86.64;100374.39;185286;1235;44768;-61
2023/04/16 10:27:25;;;;;;;;;;;;;;;15.80;85.51;100375.66;185274;1235;44768;-61
2023/04/16 10:31:39;;;;;;;20.90;14.20;;;;;;;15.86;85.73;100370.55;185428;1236;44474;-61
2023/04/16 10:35:44;;;;;;;19.60;12.50;;;;;;;15.99;79.84;100367.63;185225;1238;43504;-63
2023/04/16 10:39:57;;;;;;;20.00;13.70;;;;;;;16.19;76.47;100364.50;185195;1236;60304;-63
2023/04/16 10:44:09;;;;;;;20.60;15.80;;;;;;;16.22;77.35;100360.13;185211;1238;46052;-63
2023/04/16 10:48:13;;;;;;;24.80;15.10;;;;;;;16.10;77.91;100363.83;185054;1235;45969;-62
2023/04/16 10:52:16;;;;;;;16.40;12.20;;;;;;;16.06;79.03;100360.28;185041;1235;43485;-63
2023/04/16 10:56:26;;;;;;;21.60;14.40;;;;;;;16.22;78.21;100365.28;185141;1238;43510;-63
2023/04/16 11:00:28;;;;;;;17.10;11.90;;;;;;;16.29;79.13;100363.14;184968;1235;61041;-63
2023/04/16 11:04:36;;;;;;;13.10;10.30;;;;;;;16.35;77.27;100358.53;185220;1237;43762;-63
2023/04/16 11:08:40;;;;;;;11.60;9.40;;;;;;;16.48;73.99;100353.05;185223;1235;43640;-63
2023/04/16 11:12:57;;;;;;;12.30;9.30;;;;;;;16.52;69.67;100360.17;185294;1236;43833;-63
2023/04/16 11:17:02;;;;;;;7.50;5.90;;;;;;;16.42;69.83;100358.31;185152;1235;44042;-62
2023/04/16 11:21:13;;;;;;;13.90;9.50;;;;;;;16.44;71.57;100357.66;184941;1235;57541;-62
2023/04/16 11:25:30;;;;;;;11.40;7.50;;;;;;;16.46;72.18;100356.39;185231;1236;45868;-63
2023/04/16 11:29:32;;;;;;;14.30;10.50;;;;;;;16.56;75.49;100356.95;185185;1238;44566;-63
2023/04/16 11:33:33;;;;;;;11.00;9.30;;;;;;;16.68;76.96;100362.23;185091;1235;45919;-63
2023/04/16 11:37:37;;;;;;;14.20;10.10;;;;;;;16.77;77.19;100363.09;185116;1235;45880;-64
2023/04/16 11:41:49;;;;;;;14.50;9.50;;;;;;;16.96;78.07;100361.82;185109;1235;57375;-63
2023/04/16 11:46:08;;;;;;;10.80;9.10;;;;;;;17.06;73.02;100363.12;185432;1234;45880;-63
2023/04/16 11:50:27;;;;;;;8.00;7.20;;;;;;;17.11;70.31;100362.44;185918;1234;80088;-63
2023/04/16 11:54:49;;;;;;;9.30;6.70;;;;;;;17.21;69.24;100365.59;185024;1233;45846;-63
2023/04/16 11:59:21;;;;;;;7.50;5.50;;;;;;;17.37;69.00;100356.68;185415;1233;44284;-63
2023/04/16 12:03:39;;;;;;;7.40;5.70;;;;;;;17.63;66.88;100362.34;185773;1233;77787;-61
2023/04/16 12:17:27;;;;;;;8.90;7.20;;;;;;;17.65;65.93;100361.53;185567;1236;43889;-63
2023/04/16 12:21:50;;;;;;;6.70;5.00;;;;;;;17.67;64.13;100359.85;185430;1236;79858;-62
